createdAt,value
2022-08-07T00:01:43.746Z,100568.31
2022-08-07T00:04:09.680Z,100569.03
2022-08-07T00:06:41.029Z,100571.75
2022-08-07T00:09:29.182Z,100570.69
2022-08-07T00:12:03.500Z,100565.72
2022-08-07T00:14:32.054Z,100567.09
2022-08-07T00:17:02.528Z,100563.66
2022-08-07T00:19:34.077Z,100553.56
2022-08-07T00:22:24.441Z,100562.69
2022-08-07T00:25:16.393Z,100558.47
2022-08-07T00:27:52.154Z,100561.06
2022-08-07T00:30:27.400Z,100555.09
2022-08-07T00:33:00.898Z,100554.28
2022-08-07T00:35:30.841Z,100552.56
2022-08-07T00:38:04.581Z,100546.28
2022-08-07T00:40:40.110Z,100553.53
2022-08-07T00:44:02.061Z,100553.53
2022-08-07T00:46:01.721Z,100558.44
2022-08-07T00:48:31.782Z,100566.28
2022-08-07T00:51:02.864Z,100569.72
2022-08-07T00:53:39.281Z,100575.31
2022-08-07T00:56:19.200Z,100570.62
2022-08-07T00:58:49.698Z,100568.16
2022-08-07T01:01:20.559Z,100552.19
2022-08-07T01:03:56.981Z,100557.56
2022-08-07T01:06:29.595Z,100557.47
2022-08-07T01:09:00.977Z,100558.41
2022-08-07T01:12:09.537Z,100562.59
2022-08-07T01:14:28.475Z,100556.19
2022-08-07T01:16:57.230Z,100554.53
2022-08-07T01:19:32.441Z,100546.63
2022-08-07T01:22:03.152Z,100553.41
2022-08-07T01:24:32.567Z,100554.09
2022-08-07T01:27:01.453Z,100548.16
2022-08-07T01:29:33.925Z,100556.78
2022-08-07T01:32:05.471Z,100557.12
2022-08-07T01:34:47.410Z,100551.94
2022-08-07T01:37:19.003Z,100548.84
2022-08-07T01:39:49.196Z,100547.69
2022-08-07T01:42:38.493Z,100554.34
2022-08-07T01:45:09.742Z,100553.78
2022-08-07T01:48:19.666Z,100535.63
2022-08-07T01:50:36.471Z,100543.88
2022-08-07T01:53:08.949Z,100545.63
2022-08-07T01:55:44.296Z,100555.09
2022-08-07T01:58:27.306Z,100534.69
2022-08-07T02:01:09.542Z,100549.63
2022-08-07T02:03:52.238Z,100551.50
2022-08-07T02:06:31.162Z,100550.66
2022-08-07T02:09:04.642Z,100551.75
2022-08-07T02:12:02.941Z,100550.91
2022-08-07T02:14:40.595Z,100549.84
2022-08-07T02:17:27.701Z,100550.34
2022-08-07T02:20:05.587Z,100551.84
2022-08-07T02:22:41.378Z,100556.38
2022-08-07T02:25:17.628Z,100550.09
2022-08-07T02:27:52.126Z,100563.16
2022-08-07T02:30:21.515Z,100556.97
2022-08-07T02:33:00.786Z,100563.72
2022-08-07T02:36:29.774Z,100564.78
2022-08-07T02:38:32.342Z,100557.53
2022-08-07T02:41:01.415Z,100549.81
2022-08-07T02:43:35.496Z,100556.47
2022-08-07T02:46:09.294Z,100566.59
2022-08-07T02:48:39.214Z,100573.06
2022-08-07T02:51:41.872Z,100572.06
2022-08-07T02:54:13.190Z,100566.37
2022-08-07T02:56:44.153Z,100571.03
2022-08-07T02:59:23.984Z,100568.00
2022-08-07T03:01:56.516Z,100573.28
2022-08-07T03:04:30.874Z,100560.00
2022-08-07T03:07:03.232Z,100568.84
2022-08-07T03:09:43.608Z,100570.59
2022-08-07T03:12:22.547Z,100573.44
2022-08-07T03:15:02.207Z,100573.00
2022-08-07T03:17:53.450Z,100574.28
2022-08-07T03:20:23.727Z,100566.84
2022-08-07T03:22:53.966Z,100565.47
2022-08-07T03:25:25.495Z,100579.50
2022-08-07T03:28:08.881Z,100576.81
2022-08-07T03:30:47.015Z,100576.44
2022-08-07T03:33:17.082Z,100587.91
2022-08-07T03:35:50.159Z,100579.41
2022-08-07T03:38:21.231Z,100581.28
2022-08-07T03:40:57.358Z,100566.00
2022-08-07T03:43:32.956Z,100592.25
2022-08-07T03:46:03.207Z,100589.56
2022-08-07T03:48:34.157Z,100591.44
2022-08-07T03:51:15.319Z,100574.06
2022-08-07T03:54:33.063Z,100576.59
2022-08-07T03:56:40.420Z,100582.19
2022-08-07T03:59:28.843Z,100598.19
2022-08-07T04:01:59.062Z,100600.97
2022-08-07T04:04:27.579Z,100601.06
2022-08-07T04:07:00.671Z,100606.37
2022-08-07T04:09:44.925Z,100604.88
2022-08-07T04:12:23.771Z,100604.41
2022-08-07T04:15:00.125Z,100608.47
2022-08-07T04:18:58.353Z,100605.81
2022-08-07T04:20:19.598Z,100610.34
2022-08-07T04:22:53.594Z,100605.88
2022-08-07T04:25:31.333Z,100611.25
2022-08-07T04:28:08.618Z,100606.47
2022-08-07T04:30:55.517Z,100597.47
2022-08-07T04:33:27.384Z,100617.53
2022-08-07T04:35:56.826Z,100619.75
2022-08-07T04:38:27.227Z,100622.12
2022-08-07T04:40:56.569Z,100626.22
2022-08-07T04:44:11.301Z,100631.09
2022-08-07T04:46:59.238Z,100637.97
2022-08-07T04:49:42.330Z,100650.13
2022-08-07T04:53:07.450Z,100651.59
2022-08-07T04:58:14.295Z,100649.28
2022-08-07T05:02:06.721Z,100659.06
2022-08-07T05:04:50.136Z,100652.47
2022-08-07T05:07:30.636Z,100658.03
2022-08-07T05:10:38.549Z,100657.16
2022-08-07T05:14:51.994Z,100659.75
2022-08-07T05:16:17.494Z,100668.09
2022-08-07T05:18:56.258Z,100661.53
2022-08-07T05:21:59.379Z,100666.44
2022-08-07T05:24:18.372Z,100671.56
2022-08-07T05:26:58.186Z,100676.88
2022-08-07T05:29:39.091Z,100682.53
2022-08-07T05:32:21.114Z,100679.22
2022-08-07T05:34:50.366Z,100683.06
2022-08-07T05:37:25.418Z,100679.16
2022-08-07T05:40:05.400Z,100671.88
2022-08-07T05:42:37.041Z,100681.78
2022-08-07T05:45:26.300Z,100681.19
2022-08-07T05:48:02.490Z,100688.84
2022-08-07T05:50:34.360Z,100684.41
2022-08-07T05:53:04.062Z,100687.19
2022-08-07T05:56:02.354Z,100687.81
2022-08-07T05:58:36.385Z,100674.31
2022-08-07T06:01:11.605Z,100682.03
2022-08-07T06:03:53.559Z,100676.38
2022-08-07T06:06:29.838Z,100680.34
2022-08-07T06:09:04.342Z,100670.84
2022-08-07T06:11:34.761Z,100674.91
2022-08-07T06:14:12.182Z,100679.38
2022-08-07T06:16:55.876Z,100678.91
2022-08-07T06:19:57.836Z,100679.50
2022-08-07T06:22:23.839Z,100680.84
2022-08-07T06:25:01.488Z,100684.03
2022-08-07T06:28:00.656Z,100688.97
2022-08-07T06:30:35.191Z,100688.66
2022-08-07T06:33:09.911Z,100691.91
2022-08-07T06:35:48.077Z,100691.91
2022-08-07T06:38:35.051Z,100689.44
2022-08-07T06:41:09.794Z,100693.06
2022-08-07T06:43:46.485Z,100699.53
2022-08-07T06:46:31.458Z,100699.34
2022-08-07T06:49:04.592Z,100703.34
2022-08-07T06:51:49.585Z,100698.81
2022-08-07T06:55:31.348Z,100702.13
2022-08-07T06:57:09.611Z,100710.44
2022-08-07T07:00:11.708Z,100684.25
2022-08-07T07:02:53.679Z,100709.78
2022-08-07T07:06:03.615Z,100709.38
2022-08-07T07:08:18.873Z,100709.34
2022-08-07T07:10:57.380Z,100707.06
2022-08-07T07:13:56.374Z,100712.81
2022-08-07T07:16:27.453Z,100707.34
2022-08-07T07:19:11.560Z,100714.56
2022-08-07T07:22:04.800Z,100710.50
2022-08-07T07:24:58.390Z,100714.66
2022-08-07T07:27:35.536Z,100705.22
2022-08-07T07:30:38.123Z,100708.66
2022-08-07T07:33:11.701Z,100713.06
2022-08-07T07:36:04.093Z,100714.56
2022-08-07T07:38:34.924Z,100715.94
2022-08-07T07:41:08.766Z,100720.44
2022-08-07T07:44:13.693Z,100716.31
2022-08-07T07:46:54.180Z,100713.19
2022-08-07T07:50:34.754Z,100714.75
2022-08-07T07:52:17.549Z,100706.22
2022-08-07T07:54:51.244Z,100704.16
2022-08-07T07:57:50.489Z,100716.72
2022-08-07T08:00:15.058Z,100720.28
2022-08-07T08:03:06.003Z,100714.34
2022-08-07T08:05:54.089Z,100716.72
2022-08-07T08:08:35.290Z,100714.94
2022-08-07T08:11:07.996Z,100705.66
2022-08-07T08:13:52.782Z,100718.22
2022-08-07T08:16:29.824Z,100714.09
2022-08-07T08:19:17.341Z,100714.47
2022-08-07T08:22:10.738Z,100720.94
2022-08-07T08:25:19.167Z,100717.72
2022-08-07T08:28:01.742Z,100732.88
2022-08-07T08:30:37.413Z,100727.41
2022-08-07T08:33:15.070Z,100726.09
2022-08-07T08:35:50.683Z,100735.28
2022-08-07T08:38:25.806Z,100738.91
2022-08-07T08:40:59.056Z,100735.72
2022-08-07T08:43:42.302Z,100739.97
2022-08-07T08:46:49.212Z,100734.34
2022-08-07T08:49:32.664Z,100733.75
2022-08-07T08:52:24.667Z,100737.50
2022-08-07T08:55:07.803Z,100727.75
2022-08-07T08:57:49.511Z,100737.09
2022-08-07T09:00:18.322Z,100743.16
2022-08-07T09:02:57.818Z,100735.47
2022-08-07T09:05:43.421Z,100728.87
2022-08-07T09:08:28.266Z,100717.53
2022-08-07T09:11:24.794Z,100728.44
2022-08-07T09:14:18.105Z,100724.13
2022-08-07T09:17:24.097Z,100716.41
2022-08-07T09:20:34.616Z,100725.56
2022-08-07T09:24:31.401Z,100728.22
2022-08-07T09:26:20.928Z,100731.16
2022-08-07T09:30:04.150Z,100727.75
2022-08-07T09:32:21.841Z,100719.13
2022-08-07T09:36:05.147Z,100718.13
2022-08-07T09:38:58.970Z,100717.56
2022-08-07T09:42:07.822Z,100716.81
2022-08-07T09:47:23.589Z,100715.59
2022-08-07T09:48:12.233Z,100711.84
2022-08-07T09:50:57.378Z,100709.88
2022-08-07T09:53:41.125Z,100700.97
2022-08-07T09:56:34.098Z,100699.31
2022-08-07T09:59:46.125Z,100692.16
2022-08-07T10:02:39.654Z,100687.94
2022-08-07T10:05:29.626Z,100687.31
2022-08-07T10:08:49.571Z,100683.44
2022-08-07T10:12:01.331Z,100676.63
2022-08-07T10:15:06.327Z,100659.47
2022-08-07T10:18:00.857Z,100666.53
2022-08-07T10:20:39.278Z,100656.63
2022-08-07T10:24:05.121Z,100662.06
2022-08-07T10:26:57.503Z,100660.16
2022-08-07T10:29:31.753Z,100656.53
2022-08-07T10:32:36.863Z,100653.09
2022-08-07T10:35:56.420Z,100652.22
2022-08-07T10:38:48.016Z,100648.34
2022-08-07T10:41:52.083Z,100649.53
2022-08-07T10:44:38.363Z,100648.00
2022-08-07T10:47:31.120Z,100641.44
2022-08-07T10:50:25.930Z,100637.97
2022-08-07T10:53:12.962Z,100641.41
2022-08-07T10:55:50.566Z,100635.72
2022-08-07T10:58:47.686Z,100634.41
2022-08-07T11:01:35.206Z,100636.94
2022-08-07T11:04:37.698Z,100625.38
2022-08-07T11:07:56.869Z,100629.53
2022-08-07T11:10:11.116Z,100619.41
2022-08-07T11:12:49.287Z,100617.38
2022-08-07T11:15:35.956Z,100611.91
2022-08-07T11:18:12.520Z,100615.72
2022-08-07T11:21:07.848Z,100610.63
2022-08-07T11:23:59.502Z,100605.59
2022-08-07T11:27:13.453Z,100598.59
2022-08-07T11:30:10.096Z,100605.16
2022-08-07T11:33:14.050Z,100595.56
2022-08-07T11:36:10.113Z,100590.28
2022-08-07T11:38:59.202Z,100595.22
2022-08-07T11:42:02.037Z,100593.59
2022-08-07T11:44:52.569Z,100589.28
2022-08-07T11:47:26.153Z,100582.59
2022-08-07T11:50:32.927Z,100595.88
2022-08-07T11:53:21.681Z,100587.94
2022-08-07T12:02:35.814Z,100581.28
2022-08-07T12:05:15.296Z,100573.63
2022-08-07T12:08:25.675Z,100573.41
2022-08-07T12:14:27.577Z,100568.56
2022-08-07T12:20:10.315Z,100572.47
2022-08-07T12:23:37.256Z,100565.28
2022-08-07T12:32:18.221Z,100547.31
2022-08-07T12:34:55.666Z,100563.00
2022-08-07T12:37:27.971Z,100561.19
2022-08-07T12:40:03.073Z,100557.31
2022-08-07T12:42:33.302Z,100561.19
2022-08-07T12:45:09.350Z,100558.53
2022-08-07T12:47:50.238Z,100550.25
2022-08-07T12:50:49.456Z,100538.03
2022-08-07T12:53:18.845Z,100540.25
2022-08-07T12:56:03.623Z,100548.72
2022-08-07T12:58:39.293Z,100536.75
2022-08-07T13:01:32.697Z,100543.19
2022-08-07T13:04:04.839Z,100542.28
2022-08-07T13:07:01.226Z,100548.72
2022-08-07T13:10:18.901Z,100533.56
2022-08-07T13:13:02.404Z,100533.97
2022-08-07T13:15:48.821Z,100520.47
2022-08-07T13:18:50.637Z,100510.31
2022-08-07T13:21:50.110Z,100496.16
2022-08-07T13:24:52.432Z,100516.53
2022-08-07T13:28:10.621Z,100519.38
2022-08-07T13:31:01.483Z,100502.31
2022-08-07T13:34:30.854Z,100494.50
2022-08-07T13:36:43.667Z,100502.22
2022-08-07T13:39:49.841Z,100505.53
2022-08-07T13:42:14.702Z,100490.00
2022-08-07T13:44:55.240Z,100501.28
2022-08-07T13:48:05.530Z,100493.84
2022-08-07T13:51:00.053Z,100486.75
2022-08-07T13:53:55.332Z,100482.50
2022-08-07T13:56:35.459Z,100475.56
2022-08-07T13:59:21.716Z,100479.09
2022-08-07T14:02:13.034Z,100473.41
2022-08-07T14:04:49.667Z,100474.72
2022-08-07T14:07:22.938Z,100458.84
2022-08-07T14:10:17.822Z,100463.13
2022-08-07T14:13:00.541Z,100453.56
2022-08-07T14:15:39.308Z,100456.84
2022-08-07T14:18:28.873Z,100443.81
2022-08-07T14:22:01.089Z,100446.81
2022-08-07T14:24:20.887Z,100443.50
2022-08-07T14:26:57.778Z,100441.53
2022-08-07T14:30:09.329Z,100436.41
2022-08-07T14:32:20.830Z,100439.53
2022-08-07T14:34:54.940Z,100431.69
2022-08-07T14:37:36.062Z,100427.56
2022-08-07T14:40:16.923Z,100425.59
2022-08-07T14:43:57.910Z,100424.91
2022-08-07T14:46:01.983Z,100431.22
2022-08-07T14:48:35.891Z,100428.09
2022-08-07T14:51:16.168Z,100413.13
2022-08-07T14:54:08.980Z,100416.91
2022-08-07T14:56:39.111Z,100420.31
2022-08-07T14:59:13.616Z,100416.09
2022-08-07T15:05:03.592Z,100413.87
2022-08-07T15:07:51.229Z,100401.94
2022-08-07T15:10:26.598Z,100420.03
2022-08-07T15:13:00.450Z,100407.59
2022-08-07T15:15:38.940Z,100405.16
2022-08-07T15:18:34.114Z,100393.34
2022-08-07T15:21:44.174Z,100391.03
2022-08-07T15:25:15.197Z,100380.22
2022-08-07T15:27:17.395Z,100402.75
2022-08-07T15:32:50.602Z,100401.66
2022-08-07T15:38:30.395Z,100383.88
2022-08-07T15:41:23.849Z,100377.94
2022-08-07T15:44:07.092Z,100391.97
2022-08-07T15:46:47.416Z,100388.75
2022-08-07T15:50:04.159Z,100390.38
2022-08-07T15:52:30.619Z,100387.44
2022-08-07T15:55:03.810Z,100388.56
2022-08-07T15:57:40.070Z,100387.53
2022-08-07T16:00:31.028Z,100384.00
2022-08-07T16:03:05.377Z,100397.03
2022-08-07T16:05:36.033Z,100393.44
2022-08-07T16:08:30.944Z,100391.12
2022-08-07T16:11:26.631Z,100392.03
2022-08-07T16:14:19.376Z,100371.38
2022-08-07T16:18:01.375Z,100381.16
2022-08-07T16:20:33.965Z,100396.09
2022-08-07T16:23:54.744Z,100390.34
2022-08-07T16:26:30.612Z,100393.78
2022-08-07T16:30:11.085Z,100389.75
2022-08-07T16:32:34.522Z,100389.22
2022-08-07T16:35:56.759Z,100385.97
2022-08-07T16:39:01.087Z,100392.56
2022-08-07T16:41:54.656Z,100388.03
2022-08-07T16:45:04.080Z,100381.88
2022-08-07T16:48:02.510Z,100383.56
2022-08-07T16:50:52.698Z,100384.47
2022-08-07T16:54:06.038Z,100378.22
2022-08-07T16:56:56.378Z,100379.75
2022-08-07T16:59:47.053Z,100382.34
2022-08-07T17:02:53.691Z,100389.53
2022-08-07T17:06:28.441Z,100380.97
2022-08-07T17:08:11.104Z,100386.63
2022-08-07T17:10:54.683Z,100380.84
2022-08-07T17:14:17.567Z,100378.31
2022-08-07T17:16:56.212Z,100381.44
2022-08-07T17:20:02.567Z,100381.69
2022-08-07T17:22:45.910Z,100384.62
2022-08-07T17:25:47.567Z,100385.22
2022-08-07T17:28:22.296Z,100389.34
2022-08-07T17:31:16.061Z,100389.34
2022-08-07T17:34:15.515Z,100382.66
2022-08-07T17:37:08.912Z,100391.53
2022-08-07T17:40:03.106Z,100385.97
2022-08-07T17:42:33.668Z,100390.28
2022-08-07T17:45:14.885Z,100390.38
2022-08-07T17:47:54.023Z,100395.31
2022-08-07T17:50:54.288Z,100398.03
2022-08-07T17:54:01.699Z,100402.16
2022-08-07T17:56:57.787Z,100404.78
2022-08-07T17:59:39.157Z,100416.16
2022-08-07T18:02:56.624Z,100410.91
2022-08-07T18:06:03.456Z,100424.81
2022-08-07T18:09:01.391Z,100409.22
2022-08-07T18:12:16.002Z,100424.88
2022-08-07T18:14:46.434Z,100432.16
2022-08-07T18:18:36.624Z,100426.53
2022-08-07T18:21:30.080Z,100429.09
2022-08-07T18:24:33.353Z,100441.47
2022-08-07T18:27:17.974Z,100424.81
2022-08-07T18:30:31.875Z,100437.06
2022-08-07T18:33:35.087Z,100429.03
2022-08-07T18:36:32.613Z,100437.56
2022-08-07T18:40:05.690Z,100435.50
2022-08-07T18:42:13.007Z,100445.88
2022-08-07T18:45:44.032Z,100448.31
2022-08-07T18:48:03.427Z,100451.41
2022-08-07T18:50:49.909Z,100446.28
2022-08-07T18:53:42.769Z,100461.50
2022-08-07T18:56:40.560Z,100457.44
2022-08-07T18:59:58.879Z,100456.41
2022-08-07T19:02:52.645Z,100467.87
2022-08-07T19:06:03.079Z,100474.50
2022-08-07T19:08:59.916Z,100468.00
2022-08-07T19:12:03.994Z,100484.28
2022-08-07T19:14:56.041Z,100487.53
2022-08-07T19:17:59.193Z,100482.69
2022-08-07T19:21:08.384Z,100485.72
2022-08-07T19:23:58.518Z,100479.50
2022-08-07T19:26:55.633Z,100495.44
2022-08-07T19:30:57.240Z,100497.66
2022-08-07T19:32:28.911Z,100493.63
2022-08-07T19:35:03.437Z,100500.59
2022-08-07T19:37:57.150Z,100506.81
2022-08-07T19:40:31.861Z,100510.09
2022-08-07T19:43:09.668Z,100508.47
2022-08-07T19:46:07.171Z,100508.47
2022-08-07T19:48:42.605Z,100508.28
2022-08-07T19:51:19.467Z,100506.66
2022-08-07T19:54:34.343Z,100519.16
2022-08-07T19:57:58.317Z,100518.34
2022-08-07T19:59:41.987Z,100517.03
2022-08-07T20:02:19.739Z,100519.78
2022-08-07T20:05:00.460Z,100513.88
2022-08-07T20:07:47.135Z,100523.91
2022-08-07T20:10:36.757Z,100517.97
2022-08-07T20:13:26.927Z,100528.28
2022-08-07T20:16:03.824Z,100535.03
2022-08-07T20:18:34.773Z,100533.13
2022-08-07T20:21:22.101Z,100528.53
2022-08-07T20:24:00.425Z,100535.06
2022-08-07T20:26:38.766Z,100522.06
2022-08-07T20:29:48.004Z,100526.38
2022-08-07T20:32:11.635Z,100513.97
2022-08-07T20:34:53.071Z,100529.63
2022-08-07T20:37:30.026Z,100517.22
2022-08-07T20:40:05.339Z,100519.38
2022-08-07T20:42:56.683Z,100523.16
2022-08-07T20:45:33.070Z,100530.47
2022-08-07T20:48:30.304Z,100522.34
2022-08-07T20:51:09.334Z,100519.94
2022-08-07T20:54:03.165Z,100525.06
2022-08-07T20:56:30.724Z,100525.06
2022-08-07T20:59:05.132Z,100534.53
2022-08-07T21:01:45.919Z,100532.66
2022-08-07T21:04:28.773Z,100537.78
2022-08-07T21:07:04.461Z,100539.94
2022-08-07T21:09:53.245Z,100535.31
2022-08-07T21:12:33.750Z,100543.69
2022-08-07T21:15:08.009Z,100555.63
2022-08-07T21:18:03.204Z,100551.81
2022-08-07T21:20:30.194Z,100553.16
2022-08-07T21:23:18.331Z,100549.88
2022-08-07T21:26:09.466Z,100555.56
2022-08-07T21:28:53.197Z,100563.69
2022-08-07T21:32:43.124Z,100567.97
2022-08-07T21:34:46.072Z,100579.56
2022-08-07T21:37:59.633Z,100580.91
2022-08-07T21:40:38.241Z,100576.53
2022-08-07T21:43:55.983Z,100571.34
2022-08-07T21:46:46.271Z,100564.28
2022-08-07T21:50:01.223Z,100568.34
2022-08-07T21:52:55.169Z,100576.97
2022-08-07T21:55:31.001Z,100570.50
2022-08-07T21:58:30.068Z,100571.53
2022-08-07T22:01:13.907Z,100587.25
2022-08-07T22:04:00.637Z,100594.88
2022-08-07T22:06:45.202Z,100597.84
2022-08-07T22:09:25.492Z,100600.78
2022-08-07T22:12:05.897Z,100602.09
2022-08-07T22:14:59.555Z,100596.44
2022-08-07T22:17:36.070Z,100603.47
2022-08-07T22:20:23.189Z,100610.28
2022-08-07T22:23:17.752Z,100613.31
2022-08-07T22:25:59.059Z,100618.75
2022-08-07T22:28:38.074Z,100614.69
2022-08-07T22:31:59.544Z,100613.37
2022-08-07T22:34:12.894Z,100619.56
2022-08-07T22:36:58.998Z,100623.66
2022-08-07T22:39:54.109Z,100625.53
2022-08-07T22:42:29.297Z,100629.06
2022-08-07T22:45:11.034Z,100633.34
2022-08-07T22:48:54.994Z,100629.06
2022-08-07T22:51:22.401Z,100621.47
2022-08-07T22:54:21.261Z,100617.13
2022-08-07T22:57:16.903Z,100622.53
2022-08-07T23:00:16.992Z,100628.44
2022-08-07T23:03:03.533Z,100622.50
2022-08-07T23:06:09.290Z,100617.56
2022-08-07T23:10:04.112Z,100610.78
2022-08-07T23:12:50.369Z,100619.72
2022-08-07T23:16:06.516Z,100615.94
2022-08-07T23:18:24.179Z,100620.22
2022-08-07T23:21:20.987Z,100619.44
2022-08-07T23:24:27.820Z,100614.81
2022-08-07T23:28:21.443Z,100625.12
2022-08-07T23:31:06.432Z,100639.75
2022-08-07T23:34:34.063Z,100649.19
2022-08-07T23:36:43.419Z,100657.19
2022-08-07T23:39:55.574Z,100657.13
2022-08-07T23:42:39.142Z,100659.50
2022-08-07T23:45:33.447Z,100647.53
2022-08-07T23:48:24.968Z,100645.84
2022-08-07T23:51:01.793Z,100625.06
2022-08-07T23:53:51.159Z,100668.97
2022-08-07T23:56:31.294Z,100652.97
2022-08-07T23:59:10.515Z,100649.59
